Palo Pinto, TX

12:35 AM CDT on October 25, 2014 (GMT -0500)
North Lakeview Drive | Change Station
CLOSE
Current Station
Personal Weather Station
Location: Palo Pinto, TX
Elevation: 909 ft
Nearby Weather Stations

Elev 909 ft 32.65 °N, 98.30 °W | Updated 3 seconds ago

Clear
Clear
70.3 °F
Feels Like 73 °F
N
3.1
Wind Variable Wind from South
Gusts 5.4 mph

Today
High -- | Low -- °F
--% Chance of Precip.
Yesterday
High -- | Low -- °F
Precip. -- in
7:45 AM 6:48 PM
New Moon, 2% visible
Pressure 30.06 in
Visibility 8.0 miles
Clouds Clear
Heat Index 73 °F
Dew Point 62 °F
Humidity 75%
Rainfall 0.00 in
Snow Depth Not available.
UV 0 out of 12
Pollen 5.10 out of 12
Air Quality Not available.
Flu Activity Local Activity
METAR KMWL 250453Z AUTO 14008KT 8SM CLR 19/16 A3009 RMK AO2 SLP178 T01890156

More Conditions Fewer Conditions

Pressure 30.06 in
Visibility 8.0 miles
Clouds Clear
Heat Index 73 °F
Dew Point 62 °F
Humidity 75%
Rainfall 0.00 in
Snow Depth Not available.
UV 0 out of 12
Pollen 5.10 out of 12
Air Quality Not available.
Flu Activity Local Activity
METAR KMWL 250453Z AUTO 14008KT 8SM CLR 19/16 A3009 RMK AO2 SLP178 T01890156

More Conditions Fewer Conditions

10-Day Weather Forecast

Almanac

Astronomy

Oct. 25, 2014 Rise Set
Actual Time 7:45 AM CDT 6:48 PM CDT
Civil Twilight 7:19 AM CDT 7:14 PM CDT
Nautical Twilight 6:50 AM CDT 7:42 PM CDT
Astronomical Twilight 6:22 AM CDT 8:11 PM CDT
Moon 9:21 AM CDT 8:17 PM CDT
Length of Visible Light 11h 54m
Length of Day
11h 03m
Tomorrow will be 1m 51s shorter.
New Moon, 2% of the Moon is Illuminated
Today
New Moon
Oct 30
First Quarter
Nov 6
Full
Nov 14
Last Quarter
Nov 22
New

Today's Extremes

State Highs State Lows

Community

WunderPhotos

Upload Photos

1,764,785 photos uploaded!

Nearby

Snow Depth

Station Depth Elevation
No new snow has been reported.

Earthquake Activity

City Distance Mag. Time & Date
No recent earthquake activity has been reported nearby.
Minimum magnitude displayed is 2.5.

Coastal Water Temperatures

Place Temperature
No Stations Reporting

Nearby Weather Stations